createdAt,value
2022-08-30T00:01:33.594Z,19.00
2022-08-30T00:04:01.455Z,19.00
2022-08-30T00:06:29.524Z,18.70
2022-08-30T00:08:59.795Z,18.70
2022-08-30T00:11:28.106Z,18.70
2022-08-30T00:13:56.528Z,18.60
2022-08-30T00:16:24.514Z,18.60
2022-08-30T00:18:51.515Z,18.80
2022-08-30T00:21:18.963Z,18.40
2022-08-30T00:23:45.736Z,18.30
2022-08-30T00:26:14.808Z,18.20
2022-08-30T00:28:41.512Z,18.10
2022-08-30T00:31:08.648Z,18.10
2022-08-30T00:33:35.462Z,18.10
2022-08-30T00:36:02.391Z,18.10
2022-08-30T00:38:29.219Z,18.10
2022-08-30T00:40:56.208Z,18.00
2022-08-30T00:45:56.141Z,19.10
2022-08-30T00:48:23.526Z,17.90
2022-08-30T00:50:56.859Z,17.90
2022-08-30T00:53:27.957Z,17.90
2022-08-30T00:55:56.049Z,17.80
2022-08-30T01:30:54.245Z,18.40
2022-08-30T01:33:22.062Z,17.30
2022-08-30T01:35:53.899Z,17.20
2022-08-30T01:38:24.193Z,17.10
2022-08-30T01:40:56.415Z,17.00
2022-08-30T01:43:23.232Z,17.00
2022-08-30T01:45:50.101Z,17.00
2022-08-30T01:48:19.334Z,17.00
2022-08-30T01:50:46.021Z,17.10
2022-08-30T01:53:13.210Z,17.20
2022-08-30T01:55:40.632Z,17.20
2022-08-30T01:58:07.597Z,17.30
2022-08-30T02:00:34.338Z,17.30
2022-08-30T02:03:01.120Z,17.20
2022-08-30T02:05:27.878Z,17.10
2022-08-30T02:07:54.746Z,17.00
2022-08-30T02:10:21.607Z,16.90
2022-08-30T02:12:50.968Z,16.90
2022-08-30T02:15:18.178Z,16.90
2022-08-30T02:17:44.961Z,16.80
2022-08-30T02:20:12.419Z,16.80
2022-08-30T02:22:39.254Z,16.80
2022-08-30T02:25:21.173Z,16.70
2022-08-30T02:27:50.472Z,16.60
2022-08-30T02:30:19.717Z,16.60
2022-08-30T02:32:46.441Z,16.60
2022-08-30T02:35:13.212Z,16.60
2022-08-30T02:37:39.978Z,16.70
2022-08-30T02:40:10.868Z,16.70
2022-08-30T02:42:41.595Z,16.80
2022-08-30T02:45:08.920Z,16.80
2022-08-30T02:47:35.931Z,16.90
2022-08-30T02:50:09.984Z,16.90
2022-08-30T02:52:38.029Z,16.80
2022-08-30T02:55:06.437Z,16.70
2022-08-30T02:57:33.554Z,16.50
2022-08-30T03:00:01.275Z,16.50
2022-08-30T03:02:29.120Z,16.40
2022-08-30T03:04:57.464Z,16.40
2022-08-30T03:07:26.635Z,16.30
2022-08-30T03:09:55.732Z,16.30
2022-08-30T03:12:22.431Z,16.20
2022-08-30T03:14:49.194Z,16.20
2022-08-30T03:17:16.910Z,16.20
2022-08-30T03:19:44.864Z,16.20
2022-08-30T03:22:11.848Z,16.20
2022-08-30T03:24:38.663Z,16.20
2022-08-30T03:27:05.442Z,16.30
2022-08-30T03:29:32.209Z,16.20
2022-08-30T03:31:59.055Z,16.20
2022-08-30T03:34:27.170Z,16.20
2022-08-30T03:36:58.449Z,16.20
2022-08-30T03:39:25.287Z,16.20
2022-08-30T03:41:53.333Z,16.20
2022-08-30T03:44:21.557Z,16.20
2022-08-30T03:46:48.392Z,16.20
2022-08-30T03:49:15.762Z,16.20
2022-08-30T03:51:42.464Z,16.20
2022-08-30T03:54:11.598Z,16.10
2022-08-30T03:56:38.283Z,16.00
2022-08-30T03:59:05.407Z,15.90
2022-08-30T04:01:34.705Z,15.90
2022-08-30T04:04:01.447Z,15.80
2022-08-30T04:06:30.325Z,15.80
2022-08-30T04:08:59.549Z,15.70
2022-08-30T04:11:26.360Z,15.70
2022-08-30T04:13:53.490Z,15.70
2022-08-30T04:16:23.261Z,15.70
2022-08-30T04:18:52.591Z,15.80
2022-08-30T04:21:19.375Z,15.80
2022-08-30T04:23:48.721Z,15.70
2022-08-30T04:26:15.476Z,15.70
2022-08-30T04:28:42.177Z,15.70
2022-08-30T04:31:11.717Z,15.60
2022-08-30T04:33:39.465Z,15.70
2022-08-30T04:36:08.486Z,15.70
2022-08-30T04:38:36.976Z,15.70
2022-08-30T04:41:08.776Z,15.70
2022-08-30T04:43:35.518Z,15.70
2022-08-30T04:46:08.333Z,15.80
2022-08-30T04:48:37.140Z,15.90
2022-08-30T04:51:09.886Z,15.90
2022-08-30T04:53:36.827Z,15.80
2022-08-30T04:56:08.669Z,15.80
2022-08-30T04:58:35.560Z,15.70
2022-08-30T05:01:02.459Z,15.80
2022-08-30T05:03:29.235Z,15.80
2022-08-30T05:05:55.976Z,15.80
2022-08-30T05:08:25.141Z,15.80
2022-08-30T05:10:56.661Z,15.80
2022-08-30T05:13:34.977Z,15.80
2022-08-30T05:16:04.473Z,15.80
2022-08-30T05:18:34.251Z,15.90
2022-08-30T05:21:08.803Z,15.90
2022-08-30T05:23:37.240Z,15.80
2022-08-30T05:26:18.978Z,15.70
2022-08-30T05:28:45.979Z,15.80
2022-08-30T05:31:17.747Z,15.80
2022-08-30T05:33:45.470Z,15.70
2022-08-30T05:36:14.012Z,15.80
2022-08-30T05:38:41.288Z,15.80
2022-08-30T05:41:11.955Z,15.80
2022-08-30T05:43:39.538Z,15.90
2022-08-30T05:46:10.958Z,15.90
2022-08-30T05:48:38.845Z,15.90
2022-08-30T05:51:12.196Z,15.90
2022-08-30T05:53:42.989Z,16.00
2022-08-30T05:56:12.893Z,16.10
2022-08-30T05:58:40.028Z,16.20
2022-08-30T06:01:10.003Z,16.20
2022-08-30T06:03:36.726Z,16.30
2022-08-30T06:06:04.135Z,16.30
2022-08-30T06:08:30.884Z,16.30
2022-08-30T06:10:57.612Z,16.30
2022-08-30T06:13:24.447Z,16.30
2022-08-30T06:15:53.381Z,16.40
2022-08-30T06:18:28.503Z,16.50
2022-08-30T06:20:55.713Z,16.50
2022-08-30T06:23:22.871Z,16.70
2022-08-30T06:25:51.730Z,16.70
2022-08-30T06:28:20.972Z,16.80
2022-08-30T06:30:47.713Z,16.90
2022-08-30T06:33:14.511Z,17.00
2022-08-30T06:35:58.280Z,17.10
2022-08-30T06:38:25.995Z,17.10
2022-08-30T06:40:52.754Z,17.20
2022-08-30T06:43:19.602Z,17.30
2022-08-30T06:45:46.303Z,17.30
2022-08-30T06:48:15.198Z,17.40
2022-08-30T06:50:42.840Z,17.50
2022-08-30T06:53:09.848Z,17.50
2022-08-30T06:55:37.295Z,17.50
2022-08-30T06:58:06.214Z,17.50
2022-08-30T07:00:35.394Z,17.50
2022-08-30T07:03:03.536Z,17.60
2022-08-30T07:05:30.294Z,17.70
2022-08-30T07:07:59.145Z,18.00
2022-08-30T07:10:25.889Z,18.00
2022-08-30T07:12:52.597Z,18.20
2022-08-30T07:15:22.845Z,18.30
2022-08-30T07:18:08.340Z,18.30
2022-08-30T07:23:10.222Z,18.60
2022-08-30T07:25:39.020Z,18.60
2022-08-30T07:28:09.598Z,18.80
2022-08-30T07:30:40.383Z,19.00
2022-08-30T07:33:09.883Z,19.00
2022-08-30T07:35:37.292Z,19.00
2022-08-30T07:38:04.169Z,19.00
2022-08-30T07:40:31.005Z,19.00
2022-08-30T07:42:58.936Z,19.10
2022-08-30T07:45:27.749Z,19.30
2022-08-30T07:47:54.515Z,19.30
2022-08-30T07:50:22.362Z,19.20
2022-08-30T07:52:49.141Z,19.20
2022-08-30T07:55:16.518Z,19.30
2022-08-30T07:57:43.259Z,19.50
2022-08-30T08:00:10.801Z,19.80
2022-08-30T08:02:37.701Z,20.00
2022-08-30T08:05:08.240Z,19.90
2022-08-30T08:07:35.609Z,20.00
2022-08-30T08:10:02.741Z,20.10
2022-08-30T08:12:30.112Z,20.20
2022-08-30T08:14:56.870Z,20.50
2022-08-30T08:17:23.654Z,20.40
2022-08-30T08:19:50.364Z,20.70
2022-08-30T08:22:21.612Z,20.80
2022-08-30T08:24:49.617Z,20.90
2022-08-30T08:27:16.750Z,21.00
2022-08-30T08:29:43.896Z,21.00
2022-08-30T08:32:10.659Z,21.20
2022-08-30T08:34:37.427Z,21.30
2022-08-30T08:37:06.381Z,21.20
2022-08-30T08:39:35.698Z,21.10
2022-08-30T08:42:37.297Z,21.20
2022-08-30T08:45:08.739Z,21.50
2022-08-30T08:47:50.720Z,21.70
2022-08-30T08:50:22.417Z,22.10
2022-08-30T08:53:46.125Z,22.00
2022-08-30T08:56:17.301Z,22.10
2022-08-30T08:58:45.762Z,22.20
2022-08-30T09:01:15.312Z,22.00
2022-08-30T09:03:42.795Z,21.90
2022-08-30T09:06:28.613Z,22.00
2022-08-30T09:08:55.832Z,22.20
2022-08-30T09:11:28.735Z,22.30
2022-08-30T09:13:55.706Z,22.50
2022-08-30T09:16:50.246Z,22.70
2022-08-30T09:19:27.887Z,22.70
2022-08-30T09:22:08.473Z,22.80
2022-08-30T09:24:51.102Z,23.00
2022-08-30T09:27:39.750Z,23.20
2022-08-30T09:30:20.479Z,23.40
2022-08-30T09:32:59.898Z,23.60
2022-08-30T09:35:36.170Z,23.60
2022-08-30T09:40:43.892Z,23.80
2022-08-30T09:43:21.414Z,23.80
2022-08-30T09:46:04.817Z,23.80
2022-08-30T09:48:41.022Z,23.80
2022-08-30T09:51:11.124Z,24.00
2022-08-30T09:54:16.574Z,24.10
2022-08-30T09:57:01.059Z,24.30
2022-08-30T09:59:48.255Z,24.50
2022-08-30T10:02:48.131Z,24.60
2022-08-30T10:05:14.826Z,24.50
2022-08-30T10:07:47.808Z,24.50
2022-08-30T10:10:18.262Z,24.70
2022-08-30T10:13:03.700Z,24.80
2022-08-30T10:15:40.122Z,25.30
2022-08-30T10:18:18.981Z,25.20
2022-08-30T10:21:04.564Z,25.40
2022-08-30T10:23:38.749Z,25.60
2022-08-30T10:26:13.630Z,25.90
2022-08-30T10:28:58.782Z,25.60
2022-08-30T10:31:51.780Z,25.60
2022-08-30T10:37:03.167Z,25.50
2022-08-30T10:39:37.174Z,25.40
2022-08-30T10:42:27.914Z,25.50
2022-08-30T10:45:10.330Z,25.60
2022-08-30T10:48:07.196Z,25.70
2022-08-30T10:50:42.499Z,25.50
2022-08-30T10:53:33.963Z,25.40
2022-08-30T10:56:10.722Z,25.40
2022-08-30T10:58:40.960Z,25.70
2022-08-30T11:04:24.843Z,26.20
2022-08-30T11:07:10.408Z,26.30
2022-08-30T11:09:58.112Z,26.40
2022-08-30T11:12:55.137Z,26.70
2022-08-30T11:15:25.454Z,26.90
2022-08-30T11:18:25.117Z,26.90
2022-08-30T11:20:56.218Z,26.90
2022-08-30T11:23:37.908Z,27.00
2022-08-30T11:26:20.299Z,26.90
2022-08-30T11:28:47.421Z,27.00
2022-08-30T11:31:23.698Z,26.80
2022-08-30T11:33:50.542Z,26.80
2022-08-30T11:39:10.092Z,27.10
2022-08-30T11:41:42.635Z,27.20
2022-08-30T11:44:31.250Z,27.40
2022-08-30T11:52:30.843Z,27.20
2022-08-30T11:55:27.853Z,27.20
2022-08-30T11:58:27.979Z,27.30
2022-08-30T12:01:40.811Z,27.20
2022-08-30T12:04:15.325Z,27.30
2022-08-30T12:06:42.232Z,27.10
2022-08-30T12:09:24.926Z,27.20
2022-08-30T12:11:57.182Z,27.20
2022-08-30T12:14:53.143Z,27.20
2022-08-30T12:17:44.081Z,27.20
2022-08-30T12:20:22.602Z,27.20
2022-08-30T12:22:51.627Z,27.30
2022-08-30T12:25:25.332Z,27.40
2022-08-30T12:28:07.762Z,27.40
2022-08-30T12:30:38.618Z,27.20
2022-08-30T12:33:05.730Z,27.20
2022-08-30T12:35:33.792Z,27.20
2022-08-30T12:38:05.303Z,27.30
2022-08-30T12:40:35.081Z,27.20
2022-08-30T12:43:05.323Z,27.20
2022-08-30T12:45:39.899Z,27.40
2022-08-30T12:48:11.051Z,27.50
2022-08-30T12:50:56.237Z,27.60
2022-08-30T12:53:39.366Z,27.60
2022-08-30T12:56:13.026Z,27.60
2022-08-30T12:58:44.283Z,27.80
2022-08-30T13:01:26.358Z,27.80
2022-08-30T13:04:02.461Z,27.90
2022-08-30T13:06:43.843Z,27.90
2022-08-30T13:09:35.942Z,27.90
2022-08-30T13:12:09.504Z,27.80
2022-08-30T13:14:39.009Z,27.80
2022-08-30T13:17:12.061Z,27.90
2022-08-30T13:19:45.614Z,27.80
2022-08-30T13:22:33.747Z,27.90
2022-08-30T13:25:01.683Z,28.20
2022-08-30T13:27:29.820Z,28.30
2022-08-30T13:29:57.790Z,28.50
2022-08-30T13:32:27.349Z,28.50
2022-08-30T13:34:54.072Z,28.50
2022-08-30T13:40:17.425Z,28.50
2022-08-30T13:42:44.930Z,28.60
2022-08-30T13:48:05.476Z,28.30
2022-08-30T13:50:35.405Z,28.20
2022-08-30T13:53:02.188Z,28.40
2022-08-30T13:55:29.220Z,28.70
2022-08-30T13:57:57.330Z,28.80
2022-08-30T14:00:25.872Z,29.00
2022-08-30T14:02:57.557Z,28.90
2022-08-30T14:05:54.638Z,29.00
2022-08-30T14:11:12.438Z,29.20
2022-08-30T14:16:31.374Z,29.10
2022-08-30T14:19:02.027Z,29.10
2022-08-30T14:21:29.109Z,29.50
2022-08-30T14:26:37.036Z,30.10
2022-08-30T14:29:09.111Z,30.10
2022-08-30T14:31:41.191Z,30.20
2022-08-30T14:34:09.905Z,30.00
2022-08-30T14:36:40.161Z,29.50
2022-08-30T14:39:10.273Z,29.50
2022-08-30T14:41:47.148Z,30.00
2022-08-30T14:44:17.940Z,30.40
2022-08-30T14:46:45.202Z,30.20
2022-08-30T14:49:13.811Z,29.70
2022-08-30T14:51:41.299Z,29.60
2022-08-30T14:54:09.592Z,30.00
2022-08-30T14:56:38.659Z,30.70
2022-08-30T14:59:05.930Z,31.30
2022-08-30T15:01:33.943Z,31.70
2022-08-30T15:04:04.677Z,31.90
2022-08-30T15:06:37.960Z,32.20
2022-08-30T15:09:09.487Z,32.40
2022-08-30T15:14:06.775Z,33.60
2022-08-30T15:16:36.492Z,33.30
2022-08-30T15:19:05.059Z,32.10
2022-08-30T15:21:33.619Z,31.80
2022-08-30T15:24:02.274Z,31.60
2022-08-30T15:26:29.191Z,31.90
2022-08-30T15:28:56.323Z,32.20
2022-08-30T15:31:28.067Z,31.80
2022-08-30T15:33:57.481Z,30.20
2022-08-30T15:36:25.409Z,29.60
2022-08-30T15:38:55.836Z,29.00
2022-08-30T15:41:23.518Z,28.90
2022-08-30T15:43:52.740Z,28.60
2022-08-30T15:46:31.911Z,28.50
2022-08-30T15:49:14.657Z,28.40
2022-08-30T15:51:46.049Z,28.20
2022-08-30T15:54:17.801Z,28.10
2022-08-30T15:56:45.506Z,28.00
2022-08-30T15:59:15.238Z,28.00
2022-08-30T16:01:44.061Z,28.00
2022-08-30T16:04:11.230Z,28.10
2022-08-30T16:06:40.575Z,28.00
2022-08-30T16:09:09.920Z,28.00
2022-08-30T16:11:37.848Z,28.00
2022-08-30T16:14:06.216Z,27.90
2022-08-30T16:16:33.702Z,27.90
2022-08-30T16:19:01.685Z,27.80
2022-08-30T16:21:30.988Z,27.70
2022-08-30T16:24:00.150Z,27.70
2022-08-30T16:26:27.736Z,27.80
2022-08-30T16:28:55.352Z,27.70
2022-08-30T16:31:23.022Z,27.60
2022-08-30T16:33:53.061Z,27.60
2022-08-30T16:36:21.384Z,27.60
2022-08-30T16:38:49.303Z,27.50
2022-08-30T16:41:24.330Z,27.50
2022-08-30T16:43:53.585Z,27.40
2022-08-30T16:46:23.336Z,27.30
2022-08-30T16:48:54.998Z,27.40
2022-08-30T16:51:27.712Z,27.40
2022-08-30T16:53:56.436Z,27.40
2022-08-30T16:56:25.214Z,27.30
2022-08-30T16:59:01.132Z,27.30
2022-08-30T17:01:32.419Z,27.20
2022-08-30T17:04:02.157Z,27.20
2022-08-30T17:06:29.031Z,27.30
2022-08-30T17:08:57.983Z,27.20
2022-08-30T17:11:25.154Z,27.10
2022-08-30T17:13:52.788Z,27.10
2022-08-30T17:16:28.002Z,27.00
2022-08-30T17:19:12.241Z,27.00
2022-08-30T17:21:39.070Z,26.90
2022-08-30T17:24:06.042Z,26.80
2022-08-30T17:26:35.536Z,26.80
2022-08-30T17:29:03.395Z,26.80
2022-08-30T17:31:34.496Z,26.80
2022-08-30T17:34:04.093Z,26.70
2022-08-30T17:36:36.476Z,26.70
2022-08-30T17:39:10.873Z,26.50
2022-08-30T17:41:45.456Z,26.50
2022-08-30T17:44:18.863Z,26.40
2022-08-30T17:46:47.906Z,26.30
2022-08-30T17:49:17.122Z,26.30
2022-08-30T17:51:45.638Z,26.30
2022-08-30T17:54:17.304Z,26.20
2022-08-30T17:56:44.782Z,26.10
2022-08-30T17:59:15.852Z,26.00
2022-08-30T18:01:44.392Z,26.00
2022-08-30T18:04:14.852Z,25.90
2022-08-30T18:06:46.699Z,25.90
2022-08-30T18:09:13.442Z,25.90
2022-08-30T18:11:41.217Z,25.90
2022-08-30T18:14:10.936Z,25.80
2022-08-30T18:16:39.270Z,25.80
2022-08-30T18:19:23.433Z,25.80
2022-08-30T18:21:50.716Z,25.70
2022-08-30T18:24:17.977Z,25.60
2022-08-30T18:26:46.461Z,25.60
2022-08-30T18:29:25.986Z,25.50
2022-08-30T18:31:56.844Z,25.50
2022-08-30T18:34:23.730Z,25.40
2022-08-30T18:36:50.606Z,25.50
2022-08-30T18:39:17.469Z,25.50
2022-08-30T18:41:44.364Z,25.30
2022-08-30T18:44:27.136Z,25.20
2022-08-30T18:47:00.196Z,25.20
2022-08-30T18:49:32.348Z,25.30
2022-08-30T18:52:08.917Z,25.20
2022-08-30T18:57:20.670Z,25.00
2022-08-30T18:59:48.885Z,24.90
2022-08-30T19:02:19.652Z,24.80
2022-08-30T19:04:49.144Z,24.80
2022-08-30T19:07:19.188Z,24.70
2022-08-30T19:09:46.898Z,24.70
2022-08-30T19:12:14.042Z,24.60
2022-08-30T19:14:41.123Z,24.90
2022-08-30T19:17:07.972Z,24.60
2022-08-30T19:19:37.285Z,24.60
2022-08-30T19:22:14.252Z,24.70
2022-08-30T19:24:41.677Z,24.70
2022-08-30T19:27:12.599Z,24.70
2022-08-30T19:29:42.580Z,24.70
2022-08-30T19:32:11.506Z,24.70
2022-08-30T19:34:44.852Z,24.60
2022-08-30T19:37:13.476Z,24.50
2022-08-30T19:39:46.811Z,24.50
2022-08-30T19:42:13.740Z,24.50
2022-08-30T19:44:40.625Z,24.40
2022-08-30T19:47:07.924Z,24.50
2022-08-30T19:52:07.847Z,24.40
2022-08-30T19:54:34.660Z,24.20
2022-08-30T19:57:01.366Z,24.00
2022-08-30T19:59:28.259Z,24.00
2022-08-30T20:01:56.513Z,24.00
2022-08-30T20:04:23.367Z,24.10
2022-08-30T20:06:50.985Z,24.00
2022-08-30T20:09:17.848Z,23.90
2022-08-30T20:11:44.623Z,23.90
2022-08-30T20:14:13.940Z,23.90
2022-08-30T20:16:41.301Z,24.00
2022-08-30T20:19:09.496Z,23.90
2022-08-30T20:21:36.885Z,23.90
2022-08-30T20:24:04.872Z,23.90
2022-08-30T20:26:36.987Z,23.90
2022-08-30T20:29:05.361Z,23.90
2022-08-30T20:31:32.223Z,23.80
2022-08-30T20:33:59.127Z,23.70
2022-08-30T20:36:25.913Z,23.70
2022-08-30T20:41:24.956Z,23.50
2022-08-30T20:43:52.878Z,23.50
2022-08-30T20:46:20.629Z,23.60
2022-08-30T20:48:47.560Z,23.60
2022-08-30T20:51:19.768Z,23.60
2022-08-30T20:53:46.988Z,23.70
2022-08-30T20:56:15.966Z,23.70
2022-08-30T20:58:43.187Z,23.80
2022-08-30T21:01:11.275Z,23.60
2022-08-30T21:03:40.895Z,23.60
2022-08-30T21:06:07.956Z,23.60
2022-08-30T21:08:35.408Z,23.50
2022-08-30T21:11:02.152Z,23.60
2022-08-30T21:13:31.158Z,23.50
2022-08-30T21:16:03.276Z,23.40
2022-08-30T21:18:33.172Z,23.40
2022-08-30T21:21:22.174Z,23.50
2022-08-30T21:23:50.215Z,23.50
2022-08-30T21:26:18.185Z,23.40
2022-08-30T21:28:47.967Z,23.40
2022-08-30T21:31:17.648Z,23.30
2022-08-30T21:33:44.558Z,23.30
2022-08-30T21:36:30.682Z,23.20
2022-08-30T21:39:00.723Z,23.20
2022-08-30T21:41:28.662Z,23.10
2022-08-30T21:44:00.319Z,23.00
2022-08-30T21:46:29.110Z,22.90
2022-08-30T21:49:01.477Z,23.00
2022-08-30T21:51:31.754Z,23.00
2022-08-30T21:54:02.324Z,23.00
2022-08-30T21:56:29.830Z,23.00
2022-08-30T21:58:56.690Z,23.00
2022-08-30T22:01:28.728Z,23.00
2022-08-30T22:04:00.245Z,23.00
2022-08-30T22:06:32.210Z,22.90
2022-08-30T22:09:01.281Z,23.00
2022-08-30T22:11:28.844Z,22.90
2022-08-30T22:13:56.296Z,22.90
2022-08-30T22:16:26.035Z,22.90
2022-08-30T22:18:55.267Z,22.90
2022-08-30T22:21:24.917Z,22.90
2022-08-30T22:23:52.261Z,22.90
2022-08-30T22:26:20.680Z,22.80
2022-08-30T22:28:47.887Z,22.80
2022-08-30T22:31:16.793Z,22.80
2022-08-30T22:33:44.558Z,22.80
2022-08-30T22:36:15.375Z,22.80
2022-08-30T22:38:42.608Z,22.80
2022-08-30T22:41:19.269Z,22.80
2022-08-30T22:43:53.246Z,22.80
2022-08-30T22:46:21.220Z,22.70
2022-08-30T22:49:01.129Z,22.70
2022-08-30T22:51:28.162Z,22.70
2022-08-30T22:53:54.862Z,22.70
2022-08-30T22:56:24.958Z,22.70
2022-08-30T22:58:52.966Z,22.70
2022-08-30T23:01:22.634Z,22.70
2022-08-30T23:03:50.709Z,22.60
2022-08-30T23:06:17.743Z,22.50
2022-08-30T23:08:44.875Z,22.60
2022-08-30T23:11:11.855Z,22.60
2022-08-30T23:13:41.585Z,22.60
2022-08-30T23:16:12.455Z,22.60
2022-08-30T23:18:41.704Z,22.60
2022-08-30T23:21:18.588Z,22.60
2022-08-30T23:24:03.764Z,22.60
2022-08-30T23:26:49.279Z,22.50
2022-08-30T23:29:35.300Z,22.50
2022-08-30T23:32:20.626Z,22.50
2022-08-30T23:37:53.227Z,21.90
2022-08-30T23:40:41.413Z,21.90
2022-08-30T23:43:28.266Z,21.70
2022-08-30T23:46:16.969Z,21.60
2022-08-30T23:49:08.213Z,21.50
2022-08-30T23:51:56.466Z,21.40
2022-08-30T23:54:42.527Z,21.30
2022-08-30T23:57:30.514Z,21.40
